Time;durP1;ratioP1;P1;durP2;ratioP2;P2;SDS_P1;SDS_P2;PMS_P1;PMS_P2;Temp;Humidity;BMP_temperature;BMP_pressure;BME280_temperature;BME280_humidity;BME280_pressure;Samples;Min_cycle;Max_cycle;Signal;HPM_P1;HPM_P2
2022/04/09 00:01:46;;;;;;;0.70;0.70;;;;;;;;;;5074000;28;20589;-76
2022/04/09 00:04:12;;;;;;;0.82;0.82;;;;;;;;;;5073918;28;20406;-76
2022/04/09 00:06:38;;;;;;;0.73;0.73;;;;;;;;;;5073907;28;20183;-75
2022/04/09 00:09:04;;;;;;;0.90;0.90;;;;;;;;;;5073741;28;20560;-76
2022/04/09 00:11:30;;;;;;;0.90;0.90;;;;;;;;;;5073670;28;20805;-76
2022/04/09 00:13:56;;;;;;;0.70;0.70;;;;;;;;;;5073772;28;20429;-77
2022/04/09 00:16:22;;;;;;;0.70;0.70;;;;;;;;;;5073707;28;20406;-75
2022/04/09 00:18:48;;;;;;;0.83;0.83;;;;;;;;;;5073731;28;20394;-76
2022/04/09 00:21:14;;;;;;;0.77;0.77;;;;;;;;;;5073683;28;20766;-76
2022/04/09 00:23:40;;;;;;;0.83;0.83;;;;;;;;;;5073958;28;20411;-76
2022/04/09 00:26:05;;;;;;;0.83;0.83;;;;;;;;;;5073614;28;20407;-76
2022/04/09 00:28:31;;;;;;;0.90;0.90;;;;;;;;;;5073577;28;20873;-75
2022/04/09 00:30:57;;;;;;;0.67;0.67;;;;;;;;;;5073503;28;20466;-74
2022/04/09 00:33:23;;;;;;;0.70;0.70;;;;;;;;;;5073528;28;20426;-73
2022/04/09 00:35:49;;;;;;;0.80;0.80;;;;;;;;;;5073471;28;20488;-76
2022/04/09 00:38:15;;;;;;;0.70;0.70;;;;;;;;;;5073496;28;20402;-77
2022/04/09 00:40:41;;;;;;;0.73;0.70;;;;;;;;;;5072071;28;20479;-74
2022/04/09 00:43:07;;;;;;;0.70;0.70;;;;;;;;;;5073400;28;20410;-75
2022/04/09 00:45:34;;;;;;;0.98;0.98;;;;;;;;;;5072173;28;20474;-76
2022/04/09 00:48:00;;;;;;;0.70;0.70;;;;;;;;;;5072059;28;20214;-75
2022/04/09 00:50:26;;;;;;;0.80;0.80;;;;;;;;;;5072012;28;20523;-76
2022/04/09 00:52:55;;;;;;;0.70;0.70;;;;;;;;;;5073332;28;20588;-76
2022/04/09 00:56:13;;;;;;;0.73;0.73;;;;;;;;;;5073274;28;20176;-75
2022/04/09 00:58:15;;;;;;;2.80;0.93;;;;;;;;;;5073158;28;20864;-77
2022/04/09 01:00:42;;;;;;;0.80;0.80;;;;;;;;;;5073186;28;20250;-76
2022/04/09 01:03:11;;;;;;;1.20;1.20;;;;;;;;;;5074059;28;20438;-77
2022/04/09 01:05:37;;;;;;;1.02;1.02;;;;;;;;;;5077484;28;20411;-76
2022/04/09 01:08:04;;;;;;;0.95;0.95;;;;;;;;;;5077323;28;20535;-77
2022/04/09 01:10:30;;;;;;;1.00;1.00;;;;;;;;;;5077272;28;20196;-76
2022/04/09 01:12:56;;;;;;;1.23;1.23;;;;;;;;;;5075867;28;20905;-77
2022/04/09 01:15:22;;;;;;;1.20;1.20;;;;;;;;;;5077209;28;20410;-75
2022/04/09 01:17:48;;;;;;;1.10;1.10;;;;;;;;;;5077107;28;20232;-76
2022/04/09 01:20:15;;;;;;;1.37;1.27;;;;;;;;;;5077126;28;20406;-76
2022/04/09 01:22:41;;;;;;;1.27;1.27;;;;;;;;;;5076995;28;20817;-77
2022/04/09 01:25:07;;;;;;;1.37;1.27;;;;;;;;;;5076982;28;20251;-77
2022/04/09 01:27:33;;;;;;;1.35;1.35;;;;;;;;;;5076994;28;20483;-77
2022/04/09 01:29:59;;;;;;;0.83;0.83;;;;;;;;;;5075542;28;20237;-76
2022/04/09 01:32:25;;;;;;;2.87;0.90;;;;;;;;;;5076799;28;20416;-76
2022/04/09 01:34:52;;;;;;;1.30;1.30;;;;;;;;;;5076832;28;20890;-77
2022/04/09 01:37:18;;;;;;;1.20;1.20;;;;;;;;;;5077065;28;20666;-77
2022/04/09 01:39:44;;;;;;;1.60;1.60;;;;;;;;;;5076664;28;20436;-77
2022/04/09 01:42:10;;;;;;;1.23;1.23;;;;;;;;;;5076470;28;20465;-77
2022/04/09 01:44:37;;;;;;;1.37;1.37;;;;;;;;;;5075295;28;20430;-77
2022/04/09 01:47:04;;;;;;;1.90;1.30;;;;;;;;;;5076555;28;20402;-77
2022/04/09 01:49:30;;;;;;;1.00;1.00;;;;;;;;;;5075260;28;20423;-77
2022/04/09 01:51:55;;;;;;;1.47;1.47;;;;;;;;;;5076460;28;20493;-76
2022/04/09 01:54:21;;;;;;;1.20;1.10;;;;;;;;;;5075058;28;20857;-76
2022/04/09 01:56:47;;;;;;;1.57;1.57;;;;;;;;;;5076422;28;20414;-75
2022/04/09 01:59:14;;;;;;;1.73;1.50;;;;;;;;;;5076437;28;20388;-77
2022/04/09 02:01:40;;;;;;;1.50;1.40;;;;;;;;;;5076292;28;20381;-76
2022/04/09 02:04:06;;;;;;;1.80;1.80;;;;;;;;;;5076247;28;20406;-77
2022/04/09 02:06:33;;;;;;;1.87;1.87;;;;;;;;;;5076294;28;20876;-77
2022/04/09 02:08:59;;;;;;;1.73;1.73;;;;;;;;;;5076157;28;20410;-77
2022/04/09 02:11:25;;;;;;;1.60;1.60;;;;;;;;;;5076416;28;20809;-77
2022/04/09 02:13:52;;;;;;;1.60;1.60;;;;;;;;;;5076156;28;20401;-77
2022/04/09 02:16:18;;;;;;;1.27;1.27;;;;;;;;;;5074904;28;20912;-77
2022/04/09 02:18:44;;;;;;;1.60;1.60;;;;;;;;;;5076038;28;20774;-76
2022/04/09 02:21:10;;;;;;;1.80;1.80;;;;;;;;;;5076003;28;20413;-77
2022/04/09 02:23:36;;;;;;;1.50;1.50;;;;;;;;;;5075906;28;20485;-76
2022/04/09 02:26:03;;;;;;;1.90;1.80;;;;;;;;;;5074653;28;20457;-75
2022/04/09 02:28:31;;;;;;;1.70;1.70;;;;;;;;;;5074568;28;20464;-76
2022/04/09 02:30:57;;;;;;;2.07;1.97;;;;;;;;;;5074560;28;20546;-76
2022/04/09 02:33:23;;;;;;;1.50;1.50;;;;;;;;;;5075790;28;20376;-75
2022/04/09 02:35:49;;;;;;;1.83;1.83;;;;;;;;;;5075651;28;20893;-76
2022/04/09 02:38:15;;;;;;;2.10;2.10;;;;;;;;;;5075558;28;20411;-75
2022/04/09 02:40:41;;;;;;;1.70;1.60;;;;;;;;;;5075602;28;20410;-76
2022/04/09 02:43:08;;;;;;;1.80;1.80;;;;;;;;;;5075314;28;20961;-75
2022/04/09 02:45:34;;;;;;;2.23;2.13;;;;;;;;;;5074250;28;20794;-76
2022/04/09 02:48:00;;;;;;;2.10;2.10;;;;;;;;;;5075493;28;20812;-75
2022/04/09 02:50:26;;;;;;;2.50;2.30;;;;;;;;;;5075369;28;20938;-77
2022/04/09 02:52:52;;;;;;;1.70;1.70;;;;;;;;;;5075500;28;20443;-77
2022/04/09 02:55:18;;;;;;;1.93;1.83;;;;;;;;;;5073956;28;20400;-76
2022/04/09 02:57:44;;;;;;;1.97;1.97;;;;;;;;;;5075253;28;20414;-76
2022/04/09 03:00:11;;;;;;;1.43;1.43;;;;;;;;;;5075208;28;20905;-75
2022/04/09 03:02:38;;;;;;;1.53;1.50;;;;;;;;;;5075115;28;20410;-76
2022/04/09 03:05:04;;;;;;;1.30;1.30;;;;;;;;;;5075104;28;20413;-75
2022/04/09 03:07:31;;;;;;;1.43;1.43;;;;;;;;;;5075003;28;20455;-75
2022/04/09 03:09:56;;;;;;;1.60;1.60;;;;;;;;;;5057095;28;20489;-75
2022/04/09 03:12:23;;;;;;;1.53;1.43;;;;;;;;;;5075016;28;20418;-74
2022/04/09 03:14:48;;;;;;;1.20;1.20;;;;;;;;;;5074831;28;20414;-75
2022/04/09 03:17:14;;;;;;;1.30;1.30;;;;;;;;;;5074770;28;20410;-75
2022/04/09 03:19:40;;;;;;;1.20;1.20;;;;;;;;;;5074736;28;20406;-75
2022/04/09 03:22:07;;;;;;;1.42;1.42;;;;;;;;;;5074755;28;20442;-75
2022/04/09 03:24:33;;;;;;;1.63;1.57;;;;;;;;;;5074592;28;20203;-76
2022/04/09 03:26:59;;;;;;;1.47;1.47;;;;;;;;;;5074314;28;20451;-75
2022/04/09 03:29:25;;;;;;;1.40;1.40;;;;;;;;;;5074670;28;20399;-75
2022/04/09 03:31:51;;;;;;;1.80;1.80;;;;;;;;;;5073218;28;20978;-75
2022/04/09 03:34:17;;;;;;;1.60;1.60;;;;;;;;;;5074575;28;20402;-75
2022/04/09 03:36:43;;;;;;;1.93;1.87;;;;;;;;;;5073254;28;20393;-75
2022/04/09 03:39:09;;;;;;;1.50;1.50;;;;;;;;;;5074694;28;20468;-75
2022/04/09 03:41:35;;;;;;;1.47;1.47;;;;;;;;;;5074299;28;20607;-76
2022/04/09 03:44:01;;;;;;;1.17;1.17;;;;;;;;;;5073058;28;20479;-75
2022/04/09 03:46:27;;;;;;;3.80;1.50;;;;;;;;;;5074302;28;20406;-76
2022/04/09 03:48:53;;;;;;;1.55;1.55;;;;;;;;;;5074221;28;20818;-77
2022/04/09 03:51:19;;;;;;;1.40;1.40;;;;;;;;;;5074097;28;20353;-76
2022/04/09 03:53:45;;;;;;;1.33;1.33;;;;;;;;;;5074096;28;20372;-74
2022/04/09 03:56:11;;;;;;;1.80;1.80;;;;;;;;;;5074149;28;20886;-75
2022/04/09 03:58:38;;;;;;;1.87;1.87;;;;;;;;;;5074092;28;20406;-75
2022/04/09 04:01:04;;;;;;;3.33;2.35;;;;;;;;;;5074070;28;20398;-76
2022/04/09 04:03:30;;;;;;;1.80;1.80;;;;;;;;;;5072681;28;20520;-76
2022/04/09 04:05:56;;;;;;;1.40;1.40;;;;;;;;;;5072618;28;20402;-76
2022/04/09 04:08:21;;;;;;;1.90;1.80;;;;;;;;;;5073869;28;20479;-75
2022/04/09 04:10:48;;;;;;;1.90;1.90;;;;;;;;;;5073706;28;20473;-76
2022/04/09 04:13:14;;;;;;;2.27;2.17;;;;;;;;;;5072501;28;20417;-75
2022/04/09 04:15:42;;;;;;;2.55;2.45;;;;;;;;;;5073786;28;20448;-75
2022/04/09 04:18:08;;;;;;;2.70;2.60;;;;;;;;;;5072475;28;20216;-75
2022/04/09 04:20:34;;;;;;;2.93;2.90;;;;;;;;;;5073698;28;20414;-76
2022/04/09 04:23:00;;;;;;;3.47;3.28;;;;;;;;;;5073744;28;20491;-76
2022/04/09 04:25:26;;;;;;;2.70;2.50;;;;;;;;;;5073620;28;20604;-76
2022/04/09 04:27:52;;;;;;;3.13;3.13;;;;;;;;;;5073696;28;20167;-77
2022/04/09 04:30:19;;;;;;;2.47;2.47;;;;;;;;;;5072267;28;20469;-77
2022/04/09 04:32:45;;;;;;;3.35;3.30;;;;;;;;;;5073580;28;20401;-76
2022/04/09 04:35:11;;;;;;;2.90;2.90;;;;;;;;;;5073593;28;20178;-75
2022/04/09 04:37:37;;;;;;;3.67;3.38;;;;;;;;;;5072790;28;20432;-77
2022/04/09 04:40:04;;;;;;;3.67;3.57;;;;;;;;;;5072117;28;20184;-77
2022/04/09 04:42:30;;;;;;;3.20;3.20;;;;;;;;;;5073381;28;20498;-77
2022/04/09 04:44:56;;;;;;;9.87;9.07;;;;;;;;;;5072139;28;20183;-78
2022/04/09 04:47:22;;;;;;;3.03;2.95;;;;;;;;;;5073356;28;20402;-78
2022/04/09 04:49:48;;;;;;;2.60;2.60;;;;;;;;;;5073349;28;20499;-78
2022/04/09 04:52:14;;;;;;;3.20;3.10;;;;;;;;;;5073351;28;20418;-77
2022/04/09 04:54:39;;;;;;;3.90;3.70;;;;;;;;;;5073339;28;20418;-76
2022/04/09 04:57:05;;;;;;;2.80;2.60;;;;;;;;;;5073389;28;20548;-77
2022/04/09 04:59:32;;;;;;;2.73;2.63;;;;;;;;;;5073262;28;20410;-76
2022/04/09 05:01:58;;;;;;;2.65;2.65;;;;;;;;;;5073280;28;20467;-76
2022/04/09 05:04:25;;;;;;;2.50;2.40;;;;;;;;;;5073578;28;20578;-77
2022/04/09 05:06:51;;;;;;;3.37;3.27;;;;;;;;;;5071983;28;20176;-76
2022/04/09 05:09:17;;;;;;;2.83;2.63;;;;;;;;;;5071900;28;20845;-77
2022/04/09 05:11:44;;;;;;;3.67;3.57;;;;;;;;;;5073078;28;20469;-77
2022/04/09 05:14:10;;;;;;;4.05;3.88;;;;;;;;;;5073158;28;20433;-77
2022/04/09 05:16:36;;;;;;;3.40;3.40;;;;;;;;;;5073117;28;20535;-76
2022/04/09 05:19:02;;;;;;;2.90;2.77;;;;;;;;;;5073140;28;20494;-75
2022/04/09 05:21:28;;;;;;;2.43;2.43;;;;;;;;;;5073115;28;20434;-76
2022/04/09 05:23:54;;;;;;;2.30;2.27;;;;;;;;;;5073065;28;20406;-78
2022/04/09 05:26:20;;;;;;;2.30;2.30;;;;;;;;;;5073067;28;20418;-77
2022/04/09 05:28:52;;;;;;;3.13;2.17;;;;;;;;;;5073045;28;20383;-77
2022/04/09 05:31:19;;;;;;;2.57;2.53;;;;;;;;;;5073024;28;20879;-81
2022/04/09 05:33:45;;;;;;;3.17;2.90;;;;;;;;;;5073130;28;20397;-78
2022/04/09 05:36:11;;;;;;;2.50;2.40;;;;;;;;;;5073155;28;20402;-75
2022/04/09 05:38:37;;;;;;;2.40;2.20;;;;;;;;;;5072938;28;20175;-75
2022/04/09 05:41:02;;;;;;;2.63;2.63;;;;;;;;;;5071475;28;20509;-72
2022/04/09 05:43:29;;;;;;;2.80;2.80;;;;;;;;;;5072808;28;20893;-73
2022/04/09 05:45:55;;;;;;;2.72;2.72;;;;;;;;;;5071567;28;20414;-74
2022/04/09 05:48:21;;;;;;;12.57;11.23;;;;;;;;;;5072849;28;20310;-74
2022/04/09 05:50:47;;;;;;;6.10;5.70;;;;;;;;;;5076141;28;20496;-73
2022/04/09 05:53:13;;;;;;;2.73;2.73;;;;;;;;;;5076415;28;20402;-71
2022/04/09 05:55:39;;;;;;;2.60;2.50;;;;;;;;;;5076609;28;20421;-71
2022/04/09 05:58:05;;;;;;;7.90;3.17;;;;;;;;;;5076513;28;20394;-72
2022/04/09 06:00:32;;;;;;;3.30;3.20;;;;;;;;;;5076361;28;20410;-73
2022/04/09 06:02:58;;;;;;;3.95;3.75;;;;;;;;;;5076324;28;20394;-72
2022/04/09 06:05:24;;;;;;;2.80;2.70;;;;;;;;;;5076267;28;20164;-72
2022/04/09 06:07:50;;;;;;;3.40;3.30;;;;;;;;;;5076212;28;20833;-71
2022/04/09 06:10:16;;;;;;;2.97;2.87;;;;;;;;;;5075972;28;20457;-71
2022/04/09 06:12:42;;;;;;;3.00;3.00;;;;;;;;;;5076068;28;20418;-71
2022/04/09 06:15:08;;;;;;;3.37;3.07;;;;;;;;;;5076057;28;20409;-74
2022/04/09 06:17:36;;;;;;;3.77;3.50;;;;;;;;;;5075975;28;20419;-74
2022/04/09 06:20:04;;;;;;;2.77;2.57;;;;;;;;;;5076272;28;20798;-73
2022/04/09 06:22:30;;;;;;;3.07;2.97;;;;;;;;;;5074646;28;20381;-76
2022/04/09 06:24:56;;;;;;;19.73;14.10;;;;;;;;;;5075862;28;20406;-74
2022/04/09 06:27:22;;;;;;;2.97;2.97;;;;;;;;;;5075875;28;20497;-73
2022/04/09 06:29:48;;;;;;;3.23;3.23;;;;;;;;;;5075768;28;20410;-72
2022/04/09 06:32:14;;;;;;;3.67;3.67;;;;;;;;;;5075780;28;20417;-72
2022/04/09 06:34:40;;;;;;;13.60;12.40;;;;;;;;;;5075646;28;20835;-72
2022/04/09 06:37:06;;;;;;;3.17;2.97;;;;;;;;;;5075627;28;20499;-73
2022/04/09 06:39:32;;;;;;;2.90;2.90;;;;;;;;;;5074243;28;20418;-73
2022/04/09 06:41:58;;;;;;;3.10;3.10;;;;;;;;;;5074043;28;20469;-73
2022/04/09 06:44:25;;;;;;;3.00;2.90;;;;;;;;;;5074310;28;20452;-72
2022/04/09 06:46:51;;;;;;;3.00;2.90;;;;;;;;;;5074189;28;20792;-75
2022/04/09 06:49:17;;;;;;;2.83;2.83;;;;;;;;;;5074031;28;20872;-73
2022/04/09 06:51:44;;;;;;;2.90;2.80;;;;;;;;;;5075324;28;20468;-73
2022/04/09 06:54:10;;;;;;;2.60;2.60;;;;;;;;;;5075257;28;20474;-73
2022/04/09 06:56:37;;;;;;;2.70;2.60;;;;;;;;;;5075244;28;20467;-72
2022/04/09 06:59:03;;;;;;;2.27;2.27;;;;;;;;;;5075179;28;20876;-73
2022/04/09 07:01:30;;;;;;;2.47;2.37;;;;;;;;;;5074491;28;20389;-71
2022/04/09 07:03:56;;;;;;;4.60;2.83;;;;;;;;;;5075161;28;20482;-74
2022/04/09 07:06:22;;;;;;;2.83;2.83;;;;;;;;;;5075107;28;20410;-73
2022/04/09 07:08:48;;;;;;;3.10;3.10;;;;;;;;;;5075044;28;20876;-74
2022/04/09 07:11:14;;;;;;;3.53;3.43;;;;;;;;;;5074759;28;20504;-73
2022/04/09 07:13:40;;;;;;;3.70;3.60;;;;;;;;;;5074848;28;20388;-72
2022/04/09 07:16:06;;;;;;;3.93;3.80;;;;;;;;;;5074976;28;20780;-71
2022/04/09 07:18:32;;;;;;;3.43;3.43;;;;;;;;;;5074750;28;20406;-71
2022/04/09 07:20:58;;;;;;;2.80;2.80;;;;;;;;;;5073495;28;20385;-73
2022/04/09 07:23:24;;;;;;;3.63;3.63;;;;;;;;;;5074804;28;20454;-73
2022/04/09 07:25:50;;;;;;;3.53;3.00;;;;;;;;;;5073375;28;20919;-73
2022/04/09 07:28:16;;;;;;;3.27;3.17;;;;;;;;;;5074565;28;20410;-73
2022/04/09 07:30:43;;;;;;;3.40;3.17;;;;;;;;;;5074517;28;20460;-72
2022/04/09 07:33:10;;;;;;;2.80;2.80;;;;;;;;;;5074548;28;20412;-72
2022/04/09 07:35:36;;;;;;;3.77;3.47;;;;;;;;;;5074538;28;20384;-73
2022/04/09 07:38:02;;;;;;;3.90;3.70;;;;;;;;;;5073019;28;20393;-72
2022/04/09 07:40:29;;;;;;;4.03;3.93;;;;;;;;;;5074427;28;20410;-70
2022/04/09 07:42:55;;;;;;;4.37;4.27;;;;;;;;;;5074117;28;20502;-71
2022/04/09 07:45:21;;;;;;;3.63;3.53;;;;;;;;;;5074275;28;20385;-72
2022/04/09 07:47:52;;;;;;;2.90;2.90;;;;;;;;;;5073018;28;20408;-72
2022/04/09 07:50:18;;;;;;;3.60;3.50;;;;;;;;;;5074258;28;20428;-73
2022/04/09 07:52:44;;;;;;;4.40;4.10;;;;;;;;;;5074182;28;20377;-71
2022/04/09 07:55:11;;;;;;;4.47;4.37;;;;;;;;;;5074011;28;20380;-76
2022/04/09 07:57:38;;;;;;;4.07;3.97;;;;;;;;;;5073928;28;20797;-71
2022/04/09 08:00:04;;;;;;;4.70;4.43;;;;;;;;;;5074038;28;20373;-72
2022/04/09 08:02:30;;;;;;;3.60;3.50;;;;;;;;;;5074042;28;20487;-73
2022/04/09 08:04:56;;;;;;;4.20;4.00;;;;;;;;;;5073826;28;20441;-74
2022/04/09 08:07:22;;;;;;;8.50;7.77;;;;;;;;;;5072577;28;20434;-72
2022/04/09 08:09:48;;;;;;;4.33;4.13;;;;;;;;;;5073679;28;20730;-73
2022/04/09 08:12:15;;;;;;;5.47;5.17;;;;;;;;;;5073482;28;20470;-72
2022/04/09 08:14:41;;;;;;;4.63;4.30;;;;;;;;;;5073400;28;20783;-74
2022/04/09 08:17:07;;;;;;;9.50;4.67;;;;;;;;;;5073761;28;20861;-74
2022/04/09 08:19:34;;;;;;;4.30;4.00;;;;;;;;;;5073698;28;20413;-76
2022/04/09 08:22:00;;;;;;;5.87;4.37;;;;;;;;;;5072504;28;20849;-72
2022/04/09 08:24:26;;;;;;;4.87;4.67;;;;;;;;;;5073651;28;20490;-73
2022/04/09 08:26:52;;;;;;;4.53;4.20;;;;;;;;;;5073665;28;20437;-73
2022/04/09 08:29:20;;;;;;;4.77;4.57;;;;;;;;;;5073586;28;20409;-75
2022/04/09 08:31:47;;;;;;;4.70;4.50;;;;;;;;;;5073535;28;20953;-74
2022/04/09 08:34:17;;;;;;;5.00;4.80;;;;;;;;;;5072169;28;20790;-77
2022/04/09 08:36:44;;;;;;;4.20;4.10;;;;;;;;;;5073436;28;20472;-72
2022/04/09 08:39:10;;;;;;;5.23;4.93;;;;;;;;;;5073260;28;20377;-72
2022/04/09 08:41:40;;;;;;;4.10;3.90;;;;;;;;;;5073298;28;20833;-73
2022/04/09 08:44:06;;;;;;;3.60;3.50;;;;;;;;;;5073462;28;20401;-73
2022/04/09 08:46:34;;;;;;;5.07;4.67;;;;;;;;;;5072143;28;20393;-73
2022/04/09 08:49:03;;;;;;;5.83;3.57;;;;;;;;;;5073326;28;20897;-72
2022/04/09 08:51:29;;;;;;;4.13;3.87;;;;;;;;;;5073475;28;20830;-74
2022/04/09 08:53:56;;;;;;;3.67;3.57;;;;;;;;;;5073290;28;20369;-72
2022/04/09 08:56:22;;;;;;;3.77;3.50;;;;;;;;;;5073232;28;20460;-72
2022/04/09 08:58:48;;;;;;;3.73;3.47;;;;;;;;;;5073232;28;20878;-72
2022/04/09 09:01:14;;;;;;;4.50;4.30;;;;;;;;;;5073227;28;20417;-72
2022/04/09 09:03:40;;;;;;;3.20;3.10;;;;;;;;;;5073278;28;20406;-74
2022/04/09 09:06:24;;;;;;;5.73;3.07;;;;;;;;;;5071999;28;20778;-76
2022/04/09 09:08:50;;;;;;;4.10;3.90;;;;;;;;;;5072027;28;20867;-73
2022/04/09 09:11:16;;;;;;;3.70;3.50;;;;;;;;;;5073115;28;20553;-75
2022/04/09 09:13:49;;;;;;;4.57;3.07;;;;;;;;;;5073076;28;20438;-74
2022/04/09 09:16:23;;;;;;;5.10;2.53;;;;;;;;;;5072256;28;20809;-72
2022/04/09 09:18:56;;;;;;;2.97;2.77;;;;;;;;;;5073345;28;20403;-74
2022/04/09 09:21:27;;;;;;;2.20;2.00;;;;;;;;;;5073127;28;20413;-72
2022/04/09 09:24:08;;;;;;;2.03;2.00;;;;;;;;;;5073416;28;20426;-72
2022/04/09 09:26:40;;;;;;;2.30;2.30;;;;;;;;;;5077161;28;20402;-72
2022/04/09 09:29:08;;;;;;;2.57;2.37;;;;;;;;;;5075805;28;20413;-72
2022/04/09 09:31:41;;;;;;;3.70;2.50;;;;;;;;;;5077534;28;20465;-71
2022/04/09 09:34:08;;;;;;;4.67;2.20;;;;;;;;;;5077187;28;20394;-70
2022/04/09 09:36:36;;;;;;;2.80;2.57;;;;;;;;;;5077142;28;20406;-71
2022/04/09 09:39:04;;;;;;;6.43;2.27;;;;;;;;;;5077065;28;20394;-72
2022/04/09 09:41:30;;;;;;;6.23;2.47;;;;;;;;;;5076533;28;20472;-70
2022/04/09 09:44:05;;;;;;;4.47;2.50;;;;;;;;;;5076645;28;20402;-71
2022/04/09 09:46:32;;;;;;;2.67;2.37;;;;;;;;;;5076566;28;20492;-71
2022/04/09 09:48:58;;;;;;;2.20;2.00;;;;;;;;;;5076522;28;20476;-71
2022/04/09 09:51:25;;;;;;;3.50;2.23;;;;;;;;;;5076452;28;20986;-71
2022/04/09 09:54:02;;;;;;;2.57;2.10;;;;;;;;;;5075196;28;20418;-71
2022/04/09 09:56:37;;;;;;;2.10;2.00;;;;;;;;;;5076363;28;20477;-71
2022/04/09 09:59:07;;;;;;;3.00;2.43;;;;;;;;;;5076369;28;20826;-71
2022/04/09 10:01:35;;;;;;;4.77;3.10;;;;;;;;;;5076368;28;20421;-71
2022/04/09 10:04:02;;;;;;;2.50;2.30;;;;;;;;;;5076367;28;20820;-71
2022/04/09 10:06:29;;;;;;;4.63;2.60;;;;;;;;;;5076247;28;20414;-72
2022/04/09 10:08:55;;;;;;;8.73;3.60;;;;;;;;;;5074933;28;20418;-71
2022/04/09 10:11:22;;;;;;;3.00;2.80;;;;;;;;;;5076071;28;20526;-71
2022/04/09 10:13:48;;;;;;;3.80;2.30;;;;;;;;;;5076100;28;20402;-71
2022/04/09 10:16:21;;;;;;;3.10;2.90;;;;;;;;;;5076047;28;20442;-71
2022/04/09 10:18:49;;;;;;;2.20;2.10;;;;;;;;;;5076311;28;20407;-72
2022/04/09 10:21:15;;;;;;;2.13;2.03;;;;;;;;;;5076005;28;20813;-71
2022/04/09 10:23:42;;;;;;;1.83;1.73;;;;;;;;;;5076203;28;20429;-71
2022/04/09 10:26:08;;;;;;;2.20;2.10;;;;;;;;;;5076137;28;20414;-71
2022/04/09 10:28:38;;;;;;;2.13;2.03;;;;;;;;;;5075835;28;20869;-72
2022/04/09 10:31:24;;;;;;;5.40;2.23;;;;;;;;;;5075676;28;20469;-71
2022/04/09 10:33:55;;;;;;;3.40;2.07;;;;;;;;;;5068348;28;20910;-71
2022/04/09 10:36:40;;;;;;;1.83;1.73;;;;;;;;;;5074649;28;20473;-71
2022/04/09 10:39:21;;;;;;;4.40;1.77;;;;;;;;;;5075646;28;20394;-71
2022/04/09 10:41:47;;;;;;;1.60;1.50;;;;;;;;;;5075541;28;20457;-71
2022/04/09 10:44:33;;;;;;;1.90;1.80;;;;;;;;;;5074223;28;20541;-71
2022/04/09 10:47:01;;;;;;;1.60;1.53;;;;;;;;;;5075720;28;20416;-71
2022/04/09 10:49:28;;;;;;;1.33;1.30;;;;;;;;;;5075565;28;20890;-71
2022/04/09 10:52:16;;;;;;;4.20;1.77;;;;;;;;;;5075646;28;20474;-71
2022/04/09 10:55:02;;;;;;;2.70;1.77;;;;;;;;;;5075405;28;20412;-71
2022/04/09 10:57:28;;;;;;;2.33;1.87;;;;;;;;;;5075054;28;20467;-71
2022/04/09 10:59:57;;;;;;;2.20;2.10;;;;;;;;;;5075226;28;20402;-71
2022/04/09 11:02:24;;;;;;;2.50;1.90;;;;;;;;;;5075164;28;20916;-71
2022/04/09 11:04:51;;;;;;;2.10;1.90;;;;;;;;;;5073939;28;20422;-71
2022/04/09 11:07:17;;;;;;;2.30;1.47;;;;;;;;;;5073833;28;20544;-72
2022/04/09 11:09:46;;;;;;;1.90;1.63;;;;;;;;;;5075436;28;20423;-71
2022/04/09 11:12:13;;;;;;;1.53;1.43;;;;;;;;;;5075030;28;20473;-71
2022/04/09 11:14:48;;;;;;;1.70;1.27;;;;;;;;;;5072932;28;20953;-71
2022/04/09 11:17:15;;;;;;;2.63;1.83;;;;;;;;;;5074983;28;20777;-76
2022/04/09 11:19:42;;;;;;;10.70;6.03;;;;;;;;;;5075133;28;20501;-82
2022/04/09 11:22:09;;;;;;;2.87;2.13;;;;;;;;;;5074640;28;20450;-75
2022/04/09 11:24:38;;;;;;;2.90;2.70;;;;;;;;;;5073643;28;20422;-78
2022/04/09 11:27:04;;;;;;;22.97;2.87;;;;;;;;;;5074353;28;20409;-78
2022/04/09 11:29:34;;;;;;;3.70;2.07;;;;;;;;;;5073329;28;20414;-75
2022/04/09 11:32:00;;;;;;;1.93;1.93;;;;;;;;;;5074687;28;20476;-82
2022/04/09 11:34:26;;;;;;;1.73;1.73;;;;;;;;;;5074547;28;20402;-75
2022/04/09 11:37:06;;;;;;;5.90;1.80;;;;;;;;;;5074463;28;20460;-75
2022/04/09 11:39:37;;;;;;;2.50;2.30;;;;;;;;;;5074547;28;20468;-76
2022/04/09 11:42:03;;;;;;;1.83;1.70;;;;;;;;;;5073907;28;20483;-69
2022/04/09 11:44:29;;;;;;;2.20;1.80;;;;;;;;;;5074065;28;20481;-69
2022/04/09 11:46:55;;;;;;;1.50;1.50;;;;;;;;;;5073958;28;20413;-70
2022/04/09 11:49:28;;;;;;;2.20;2.00;;;;;;;;;;5074254;28;20394;-70
2022/04/09 11:51:55;;;;;;;1.47;1.30;;;;;;;;;;5073947;28;20461;-72
2022/04/09 11:54:21;;;;;;;2.30;2.20;;;;;;;;;;5074129;28;20406;-71
2022/04/09 11:56:47;;;;;;;1.83;1.70;;;;;;;;;;5072798;28;20895;-71
2022/04/09 11:59:16;;;;;;;1.53;1.30;;;;;;;;;;5073737;28;20410;-72
2022/04/09 12:01:46;;;;;;;1.90;1.70;;;;;;;;;;5073712;28;20566;-72
2022/04/09 12:04:12;;;;;;;2.03;1.80;;;;;;;;;;5074040;28;20449;-72
2022/04/09 12:06:38;;;;;;;1.83;1.83;;;;;;;;;;5073923;28;20413;-72
2022/04/09 12:09:04;;;;;;;1.40;1.40;;;;;;;;;;5074198;28;20757;-72
2022/04/09 12:11:30;;;;;;;2.03;1.97;;;;;;;;;;5072496;28;20481;-72
2022/04/09 12:14:08;;;;;;;1.50;1.40;;;;;;;;;;5072208;28;20414;-72
2022/04/09 12:16:38;;;;;;;5.73;1.60;;;;;;;;;;5073824;28;20417;-72
2022/04/09 12:19:06;;;;;;;1.70;1.60;;;;;;;;;;5073701;28;20403;-72
2022/04/09 12:21:32;;;;;;;1.93;1.80;;;;;;;;;;5073710;28;20489;-72
2022/04/09 12:24:02;;;;;;;4.37;1.77;;;;;;;;;;5072341;28;20781;-71
2022/04/09 12:26:29;;;;;;;1.20;1.20;;;;;;;;;;5073631;28;20424;-71
2022/04/09 12:29:06;;;;;;;2.00;1.77;;;;;;;;;;5073521;28;20451;-72
2022/04/09 12:31:32;;;;;;;2.57;1.80;;;;;;;;;;5072169;28;20476;-72
2022/04/09 12:33:58;;;;;;;3.80;1.50;;;;;;;;;;5072238;28;20467;-72
2022/04/09 12:36:24;;;;;;;7.70;6.93;;;;;;;;;;5073601;28;20457;-73
2022/04/09 12:38:50;;;;;;;2.70;2.60;;;;;;;;;;5073491;28;20893;-72
2022/04/09 12:41:16;;;;;;;1.60;1.50;;;;;;;;;;5071958;28;20567;-72
2022/04/09 12:43:43;;;;;;;2.77;1.63;;;;;;;;;;5073564;28;20409;-72
2022/04/09 12:46:14;;;;;;;1.90;1.80;;;;;;;;;;5073485;28;20426;-72
2022/04/09 12:48:44;;;;;;;2.40;1.90;;;;;;;;;;5073442;28;20436;-72
2022/04/09 12:51:12;;;;;;;1.47;1.33;;;;;;;;;;5073515;28;20474;-73
2022/04/09 12:53:38;;;;;;;1.50;1.40;;;;;;;;;;5073409;28;20401;-73
2022/04/09 12:56:08;;;;;;;2.83;1.83;;;;;;;;;;5073283;28;20783;-72
2022/04/09 12:58:34;;;;;;;2.47;1.33;;;;;;;;;;5072828;28;20402;-72
2022/04/09 13:01:00;;;;;;;1.77;1.67;;;;;;;;;;5079851;28;20925;-72
2022/04/09 13:03:26;;;;;;;1.03;1.03;;;;;;;;;;5080037;28;20567;-70
2022/04/09 13:05:52;;;;;;;1.17;1.17;;;;;;;;;;5080019;28;20878;-69
2022/04/09 13:08:18;;;;;;;1.90;1.23;;;;;;;;;;5079874;28;20843;-71
2022/04/09 13:10:44;;;;;;;3.80;1.10;;;;;;;;;;5079893;28;20497;-72
2022/04/09 13:13:10;;;;;;;2.10;1.50;;;;;;;;;;5079891;28;20398;-71
2022/04/09 13:15:36;;;;;;;1.53;1.43;;;;;;;;;;5079889;28;20426;-71
2022/04/09 13:18:02;;;;;;;1.20;1.20;;;;;;;;;;5079817;28;20402;-75
2022/04/09 13:20:28;;;;;;;1.87;1.33;;;;;;;;;;5079869;28;20402;-71
2022/04/09 13:22:55;;;;;;;1.90;1.70;;;;;;;;;;5078389;28;20424;-71
2022/04/09 13:25:21;;;;;;;1.40;1.30;;;;;;;;;;5079622;28;20418;-73
2022/04/09 13:27:49;;;;;;;1.20;1.20;;;;;;;;;;5078363;28;20417;-71
2022/04/09 13:30:15;;;;;;;1.47;1.37;;;;;;;;;;5079531;28;20497;-70
2022/04/09 13:32:41;;;;;;;1.43;1.40;;;;;;;;;;5079583;28;20461;-70
2022/04/09 13:35:08;;;;;;;1.20;1.20;;;;;;;;;;5079609;28;20468;-73
2022/04/09 13:37:34;;;;;;;2.73;1.90;;;;;;;;;;5079507;28;20407;-71
2022/04/09 13:40:00;;;;;;;1.77;1.63;;;;;;;;;;5079442;28;20423;-70
2022/04/09 13:42:26;;;;;;;2.97;1.87;;;;;;;;;;5079502;28;20469;-70
2022/04/09 13:44:52;;;;;;;1.33;1.33;;;;;;;;;;5079526;28;20468;-72
2022/04/09 13:47:18;;;;;;;4.00;1.60;;;;;;;;;;5078193;28;20410;-71
2022/04/09 13:49:44;;;;;;;1.90;1.80;;;;;;;;;;5079644;28;20405;-71
2022/04/09 13:52:11;;;;;;;3.13;1.80;;;;;;;;;;5078050;28;20526;-70
2022/04/09 13:54:37;;;;;;;2.10;2.00;;;;;;;;;;5079580;28;20466;-70
2022/04/09 13:57:03;;;;;;;1.97;1.87;;;;;;;;;;5078121;28;20432;-71
2022/04/09 13:59:29;;;;;;;3.33;1.80;;;;;;;;;;5077979;28;20417;-72
2022/04/09 14:01:55;;;;;;;1.90;1.80;;;;;;;;;;5079434;28;20442;-72
2022/04/09 14:04:22;;;;;;;2.47;2.37;;;;;;;;;;5079287;28;20414;-72
2022/04/09 14:06:48;;;;;;;1.90;1.80;;;;;;;;;;5079422;28;20409;-70
2022/04/09 14:09:14;;;;;;;2.23;2.13;;;;;;;;;;5079287;28;20402;-70
2022/04/09 14:11:40;;;;;;;2.40;2.30;;;;;;;;;;5076513;28;20560;-70
2022/04/09 14:14:06;;;;;;;2.10;1.90;;;;;;;;;;5075991;28;20885;-70
2022/04/09 14:16:32;;;;;;;2.03;1.80;;;;;;;;;;5076168;28;20417;-70
2022/04/09 14:18:58;;;;;;;2.63;2.43;;;;;;;;;;5076170;28;20491;-71
2022/04/09 14:21:26;;;;;;;2.70;2.60;;;;;;;;;;5075889;28;20414;-70
2022/04/09 14:23:52;;;;;;;2.03;1.90;;;;;;;;;;5075921;28;20401;-70
2022/04/09 14:26:18;;;;;;;1.80;1.80;;;;;;;;;;5075961;28;20512;-69
2022/04/09 14:28:44;;;;;;;2.50;1.83;;;;;;;;;;5076117;28;20402;-71
2022/04/09 14:31:11;;;;;;;1.83;1.73;;;;;;;;;;5074447;28;20484;-70
2022/04/09 14:33:38;;;;;;;2.10;1.60;;;;;;;;;;5075876;28;20406;-70
2022/04/09 14:36:04;;;;;;;3.33;2.10;;;;;;;;;;5075579;28;20440;-71
2022/04/09 14:38:30;;;;;;;2.13;1.93;;;;;;;;;;5074391;28;20928;-70
2022/04/09 14:40:56;;;;;;;2.20;2.00;;;;;;;;;;5075729;28;20902;-69
2022/04/09 14:43:22;;;;;;;2.37;2.27;;;;;;;;;;5075502;28;20457;-71